Carnival Magic — 3ETA8 — position and weather

sailwx.info

Track history (hours):
 
Tides and Currents Weather Stations Pressure Air Temp Water Temp Dewpoint Dewpoint Depression Visibility Wind Speed Wind Dir Waves Ship Positions

Carnival Magic

Last reported at 2018-Oct-23 09:00 UTC. Time now 2018-Oct-23 23:00 UTC.
Position N 20°06' W 071°00'.

Length 305 m; draft 8.4 m.

Type: Ship. MMSI: 370491000.

Wind from 100 at 15 knots

Barometer 1013.0 mb
Air temperature 28.0 ° C
Visibility: greater than 10.8 NM
Dewpoint 28.0 ° C
Water temperature 29.0 ° C

Date/timePositionNaut miles runAvg speedWind from/ knotsBaromVisibWave heightAir tempDewpointWater temp
2018-Oct-23 09:00N 20°06' W 071°00'11919.8 100 / 151013.010.8 28.028.029.0
2018-Oct-23 03:00N 21°24' W 072°36'28217.6 070 / 251015.510.8 28.025.230.0
2018-Oct-22 11:00N 25°12' W 075°36'14718.4 060 / 321015.310.8 29.027.629.0
2018-Oct-22 03:00N 25°54' W 078°12'6118.5 030 / 301016.010.8 28.025.230.0
2018-Oct-21 23:41N 26°07' W 079°18'317.3
2018-Oct-21 23:30N 26°06' W 079°22'817.5
2018-Oct-21 23:03N 26°03' W 079°30'117.9
2018-Oct-21 23:01N 26°03' W 079°31'918.1
2018-Oct-21 22:30N 25°60' W 079°40'818.3
2018-Oct-21 22:03N 25°57' W 079°48'118.3
2018-Oct-21 22:00N 25°56' W 079°50'1019.4
2018-Oct-21 21:30N 25°50' W 079°58'1110.7
2018-Oct-21 20:30N 25°46' W 080°09'1 2.3
2018-Oct-21 20:03N 25°47' W 080°10'0 0.1
2018-Oct-21 20:00N 25°47' W 080°10'0 0.0
2018-Oct-21 19:30N 25°47' W 080°10'0 0.0
2018-Oct-21 19:03N 25°47' W 080°10'0 0.0
2018-Oct-21 18:57N 25°47' W 080°10'0 0.0
2018-Oct-21 18:30N 25°47' W 080°10'0 0.0
2018-Oct-21 18:03N 25°47' W 080°10'0 0.1
2018-Oct-21 17:57N 25°47' W 080°10'0 0.0
2018-Oct-21 17:30N 25°47' W 080°10'0 0.0
2018-Oct-21 17:03N 25°47' W 080°10'0 0.0
2018-Oct-21 16:57N 25°47' W 080°10'0 0.0
2018-Oct-21 16:27N 25°47' W 080°10'0 0.0
2018-Oct-21 16:03N 25°47' W 080°10'0 0.0
2018-Oct-21 16:00N 25°47' W 080°10'0 0.0
2018-Oct-21 15:27N 25°47' W 080°10'0 0.0
2018-Oct-21 15:00N 25°47' W 080°10'0 0.0
2018-Oct-21 14:27N 25°47' W 080°10'0 0.0
2018-Oct-21 14:00N 25°47' W 080°10'0 0.0
2018-Oct-21 13:30N 25°47' W 080°10'0 0.0
2018-Oct-21 13:03N 25°47' W 080°10'0 0.0
2018-Oct-21 13:00N 25°47' W 080°10'0 0.0
2018-Oct-21 12:30N 25°47' W 080°10'0 0.0
2018-Oct-21 12:04N 25°47' W 080°10'0 0.0
2018-Oct-21 12:01N 25°47' W 080°10'0 0.0
2018-Oct-21 11:31N 25°47' W 080°10'0 0.0
2018-Oct-21 11:03N 25°47' W 080°10'0 0.0
2018-Oct-21 11:01N 25°47' W 080°10'0 0.0
2018-Oct-21 10:30N 25°47' W 080°10'0 0.0
2018-Oct-21 10:03N 25°47' W 080°10'0 0.0
2018-Oct-21 10:01N 25°47' W 080°10'0 0.0
2018-Oct-21 09:31N 25°47' W 080°10'0 0.0
2018-Oct-21 09:04N 25°47' W 080°10'0 0.0
2018-Oct-21 09:01N 25°47' W 080°10'1 1.8
2018-Oct-21 08:30N 25°47' W 080°11'2 4.6
2018-Oct-21 08:03N 25°46' W 080°09'0 8.0
2018-Oct-21 08:01N 25°46' W 080°08'611.7
2018-Oct-21 07:30N 25°47' W 080°02'2 5.4
2018-Oct-21 07:04N 25°46' W 079°59'0 6.8
2018-Oct-21 07:00N 25°46' W 079°59'713.6
2018-Oct-21 06:30N 25°43' W 079°52'714.8
2018-Oct-21 06:03N 25°40' W 079°46'116.5
2018-Oct-21 06:00N 25°39' W 079°45'917.6
2018-Oct-21 05:30N 25°30' W 079°45'817.8
2018-Oct-21 05:03N 25°22' W 079°46'117.9
2018-Oct-21 05:00N 25°21' W 079°46'3919.6
2018-Oct-21 03:00N 24°42' W 079°48'1914.0 080 / 51015.910.8 28.025.230.0
2018-Oct-21 01:36N 24°32' W 080°07'116.2
2018-Oct-21 01:30N 24°32' W 080°08'716.3
2018-Oct-21 01:03N 24°27' W 080°15'116.2
2018-Oct-21 01:00N 24°27' W 080°16'816.2
2018-Oct-21 00:30N 24°22' W 080°23'11815.7
2018-Oct-20 17:00N 23°30' W 082°18'3416.8 140 / 171016.110.8 31.026.930.0
2018-Oct-20 15:00N 23°24' W 082°54'21117.6 130 / 181017.210.8 30.027.330.0
2018-Oct-20 03:00N 21°30' W 086°06'7515.2 090 / 181015.810.8 28.025.230.0
2018-Oct-19 22:05N 20°33' W 086°58'013.2
2018-Oct-19 22:03N 20°33' W 086°58'112.8
2018-Oct-19 22:00N 20°32' W 086°58'3 6.2
2018-Oct-19 21:27N 20°29' W 086°59'0 0.0
2018-Oct-19 21:03N 20°29' W 086°59'0 0.0
2018-Oct-19 21:00N 20°29' W 086°59'0 0.0
2018-Oct-19 20:30N 20°29' W 086°59'0 0.0
2018-Oct-19 20:03N 20°29' W 086°59'0 0.0
2018-Oct-19 20:00N 20°29' W 086°59'0 0.0
2018-Oct-19 19:30N 20°29' W 086°59'0 0.0
2018-Oct-19 19:00N 20°29' W 086°59'0 0.0
2018-Oct-19 18:30N 20°29' W 086°59'0 0.0
2018-Oct-19 18:03N 20°29' W 086°59'0 0.0
2018-Oct-19 17:57N 20°29' W 086°59'0 0.0
2018-Oct-19 17:30N 20°29' W 086°59'0 0.0
2018-Oct-19 17:03N 20°29' W 086°59'0 0.0
2018-Oct-19 17:00N 20°29' W 086°59'0 0.0
2018-Oct-19 16:30N 20°29' W 086°59'0 0.0
2018-Oct-19 16:03N 20°29' W 086°59'0 0.0
2018-Oct-19 16:00N 20°29' W 086°59'0 0.0
2018-Oct-19 15:27N 20°29' W 086°59'0 0.0
2018-Oct-19 15:03N 20°29' W 086°59'0 0.0
2018-Oct-19 15:00N 20°29' W 086°59'0 0.0
2018-Oct-19 14:00N 20°29' W 086°59'0 0.0
2018-Oct-19 13:30N 20°29' W 086°59'0 0.0
2018-Oct-19 13:03N 20°29' W 086°59'0 0.0
2018-Oct-19 13:00N 20°29' W 086°59'0 0.0
2018-Oct-19 12:27N 20°29' W 086°59'0 0.0
2018-Oct-19 12:03N 20°29' W 086°59'0 0.0
2018-Oct-19 12:00N 20°29' W 086°59'0 0.1
2018-Oct-19 11:30N 20°29' W 086°59'3 5.7
2018-Oct-19 11:03N 20°31' W 087°01'0 4.8
2018-Oct-19 11:00N 20°31' W 087°01'510.6
2018-Oct-19 10:30N 20°26' W 087°03'10418.9
2018-Oct-19 05:00N 18°42' W 086°54'4019.9 100 / 351013.110.8 28.028.029.0
2018-Oct-19 03:00N 18°06' W 087°12'79 3.6 090 / 251013.010.8 28.025.230.0
2018-Oct-18 05:00N 16°48' W 087°00'2512.5 090 / 301011.010.8 28.026.629.0
2018-Oct-18 03:00N 16°30' W 087°18'182 8.3 090 / 271010.610.8 28.025.230.0
2018-Oct-17 05:00N 17°30' W 084°18'3433.8 090 / 171011.810.8 28.028.029.0
2018-Oct-17 04:00N 17°48' W 083°48'153 6.6 090 / 181013.010.8 28.025.230.0
2018-Oct-16 05:00N 20°12' W 082°54'2914.4 090 / 221013.410.8 28.028.029.0
2018-Oct-16 03:00N 20°30' W 083°18'13813.8 090 / 201014.210.8 28.025.230.0
2018-Oct-15 17:00N 22°24' W 084°42'4120.5 090 / 151014.410.8 31.026.930.0
2018-Oct-15 15:00N 22°48' W 084°06'19019.0 090 / 151015.410.8 29.027.630.0
2018-Oct-15 05:00N 24°00' W 080°54'3618.2 090 / 221016.010.8 28.028.029.0
2018-Oct-15 03:00N 24°24' W 080°24'6815.7 090 / 201016.810.8 28.025.230.0
2018-Oct-14 22:39N 25°28' W 079°58'214.6
2018-Oct-14 22:31N 25°30' W 079°59'614.4
2018-Oct-14 22:04N 25°36' W 079°59'114.4
2018-Oct-14 22:01N 25°37' W 079°59'612.2
2018-Oct-14 21:30N 25°43' W 080°02'4 8.5
2018-Oct-14 21:03N 25°46' W 080°04'0 6.4
2018-Oct-14 21:00N 25°46' W 080°05'5 9.3
2018-Oct-14 20:30N 25°47' W 080°10'1 1.3
2018-Oct-14 20:01N 25°47' W 080°10'0 0.0
2018-Oct-14 19:58N 25°47' W 080°10'0 0.0
2018-Oct-14 19:28N 25°47' W 080°10'0 0.0
2018-Oct-14 19:03N 25°47' W 080°10'0 0.0
2018-Oct-14 19:00N 25°47' W 080°10'0 0.0
2018-Oct-14 18:29N 25°47' W 080°10'0 0.0
2018-Oct-14 18:02N 25°47' W 080°10'0 0.0
2018-Oct-14 17:59N 25°47' W 080°10'0 0.0
2018-Oct-14 17:29N 25°47' W 080°10'0 0.0
2018-Oct-14 16:59N 25°47' W 080°10'0 0.0
2018-Oct-14 16:29N 25°47' W 080°10'0 0.0
2018-Oct-14 16:02N 25°47' W 080°10'0 0.0
2018-Oct-14 15:59N 25°47' W 080°10'0 0.0
2018-Oct-14 15:29N 25°47' W 080°10'0 0.0
2018-Oct-14 15:02N 25°47' W 080°10'0 0.0
2018-Oct-14 14:59N 25°47' W 080°10'0 0.0
2018-Oct-14 14:29N 25°47' W 080°10'0 0.0
2018-Oct-14 13:59N 25°47' W 080°10'0 0.0
2018-Oct-14 13:29N 25°47' W 080°10'0 0.0
2018-Oct-14 12:59N 25°47' W 080°10'0 0.0
2018-Oct-14 12:29N 25°47' W 080°10'0 0.0
2018-Oct-14 12:02N 25°47' W 080°10'0 0.0
2018-Oct-14 11:59N 25°47' W 080°10'0 0.0
2018-Oct-14 11:29N 25°47' W 080°10'0 0.0
2018-Oct-14 11:02N 25°47' W 080°10'0 0.0
2018-Oct-14 10:53N 25°47' W 080°10'0 0.0
2018-Oct-14 10:29N 25°47' W 080°10'0 0.0
2018-Oct-14 10:03N 25°47' W 080°10'0 0.0
2018-Oct-14 10:00N 25°47' W 080°10'1 1.1
2018-Oct-14 09:30N 25°47' W 080°11'3 5.7
2018-Oct-14 09:03N 25°46' W 080°08'0 7.0
2018-Oct-14 09:00N 25°46' W 080°08'611.7
2018-Oct-14 08:30N 25°47' W 080°02'510.0
2018-Oct-14 08:03N 25°50' W 079°58'0 9.0
2018-Oct-14 08:00N 25°50' W 079°57'510.1
2018-Oct-14 07:30N 25°53' W 079°53'612.7
2018-Oct-14 07:03N 25°57' W 079°48'112.7
2018-Oct-14 07:00N 25°57' W 079°47'612.8
2018-Oct-14 06:30N 26°01' W 079°41'613.3
2018-Oct-14 06:03N 26°04' W 079°36'113.4
2018-Oct-14 06:00N 26°05' W 079°35'713.6
2018-Oct-14 05:30N 26°08' W 079°29'614.1
2018-Oct-14 05:03N 26°12' W 079°23'114.5
2018-Oct-14 05:00N 26°12' W 079°22'7491.0
2018-Oct-14 05:00N 26°06' W 079°18'918.4 180 / 51015.010.8 28.028.029.0
2018-Oct-14 04:30N 26°15' W 079°15'1912.4
2018-Oct-14 03:00N 26°12' W 078°54'17417.4 120 / 61015.310.8 28.025.230.0
2018-Oct-13 17:00N 25°24' W 075°48'   180 / 181014.010.8 30.025.829.0
Track history (hours):
 
Tides and Currents Weather Stations Pressure Air Temp Water Temp Dewpoint Dewpoint Depression Visibility Wind Speed Wind Dir Waves Ship Positions

Carnival Magic

Last reported at 2018-Oct-23 09:00 UTC. Time now 2018-Oct-23 23:00 UTC.
Position N 20°06' W 071°00'.

Length 305 m; draft 8.4 m.

Type: Ship. MMSI: 370491000.

Wind from 100 at 15 knots

Barometer 1013.0 mb
Air temperature 28.0 ° C
Visibility: greater than 10.8 NM
Dewpoint 28.0 ° C
Water temperature 29.0 ° C

Date/timePositionNaut miles runAvg speedWind from/ knotsBaromVisibWave heightAir tempDewpointWater temp
2018-Oct-23 09:00N 20°06' W 071°00'11919.8 100 / 151013.010.8 28.028.029.0
2018-Oct-23 03:00N 21°24' W 072°36'28217.6 070 / 251015.510.8 28.025.230.0
2018-Oct-22 11:00N 25°12' W 075°36'14718.4 060 / 321015.310.8 29.027.629.0
2018-Oct-22 03:00N 25°54' W 078°12'6118.5 030 / 301016.010.8 28.025.230.0
2018-Oct-21 23:41N 26°07' W 079°18'317.3
2018-Oct-21 23:30N 26°06' W 079°22'817.5
2018-Oct-21 23:03N 26°03' W 079°30'117.9
2018-Oct-21 23:01N 26°03' W 079°31'918.1
2018-Oct-21 22:30N 25°60' W 079°40'818.3
2018-Oct-21 22:03N 25°57' W 079°48'118.3
2018-Oct-21 22:00N 25°56' W 079°50'1019.4
2018-Oct-21 21:30N 25°50' W 079°58'1110.7
2018-Oct-21 20:30N 25°46' W 080°09'1 2.3
2018-Oct-21 20:03N 25°47' W 080°10'0 0.1
2018-Oct-21 20:00N 25°47' W 080°10'0 0.0
2018-Oct-21 19:30N 25°47' W 080°10'0 0.0
2018-Oct-21 19:03N 25°47' W 080°10'0 0.0
2018-Oct-21 18:57N 25°47' W 080°10'0 0.0
2018-Oct-21 18:30N 25°47' W 080°10'0 0.0
2018-Oct-21 18:03N 25°47' W 080°10'0 0.1
2018-Oct-21 17:57N 25°47' W 080°10'0 0.0
2018-Oct-21 17:30N 25°47' W 080°10'0 0.0
2018-Oct-21 17:03N 25°47' W 080°10'0 0.0
2018-Oct-21 16:57N 25°47' W 080°10'0 0.0
2018-Oct-21 16:27N 25°47' W 080°10'0 0.0
2018-Oct-21 16:03N 25°47' W 080°10'0 0.0
2018-Oct-21 16:00N 25°47' W 080°10'0 0.0
2018-Oct-21 15:27N 25°47' W 080°10'0 0.0
2018-Oct-21 15:00N 25°47' W 080°10'0 0.0
2018-Oct-21 14:27N 25°47' W 080°10'0 0.0
2018-Oct-21 14:00N 25°47' W 080°10'0 0.0
2018-Oct-21 13:30N 25°47' W 080°10'0 0.0
2018-Oct-21 13:03N 25°47' W 080°10'0 0.0
2018-Oct-21 13:00N 25°47' W 080°10'0 0.0
2018-Oct-21 12:30N 25°47' W 080°10'0 0.0
2018-Oct-21 12:04N 25°47' W 080°10'0 0.0
2018-Oct-21 12:01N 25°47' W 080°10'0 0.0
2018-Oct-21 11:31N 25°47' W 080°10'0 0.0
2018-Oct-21 11:03N 25°47' W 080°10'0 0.0
2018-Oct-21 11:01N 25°47' W 080°10'0 0.0
2018-Oct-21 10:30N 25°47' W 080°10'0 0.0
2018-Oct-21 10:03N 25°47' W 080°10'0 0.0
2018-Oct-21 10:01N 25°47' W 080°10'0 0.0
2018-Oct-21 09:31N 25°47' W 080°10'0 0.0
2018-Oct-21 09:04N 25°47' W 080°10'0 0.0
2018-Oct-21 09:01N 25°47' W 080°10'1 1.8
2018-Oct-21 08:30N 25°47' W 080°11'2 4.6
2018-Oct-21 08:03N 25°46' W 080°09'0 8.0
2018-Oct-21 08:01N 25°46' W 080°08'611.7
2018-Oct-21 07:30N 25°47' W 080°02'2 5.4
2018-Oct-21 07:04N 25°46' W 079°59'0 6.8
2018-Oct-21 07:00N 25°46' W 079°59'713.6
2018-Oct-21 06:30N 25°43' W 079°52'714.8
2018-Oct-21 06:03N 25°40' W 079°46'116.5
2018-Oct-21 06:00N 25°39' W 079°45'917.6
2018-Oct-21 05:30N 25°30' W 079°45'817.8
2018-Oct-21 05:03N 25°22' W 079°46'117.9
2018-Oct-21 05:00N 25°21' W 079°46'3919.6
2018-Oct-21 03:00N 24°42' W 079°48'1914.0 080 / 51015.910.8 28.025.230.0
2018-Oct-21 01:36N 24°32' W 080°07'116.2
2018-Oct-21 01:30N 24°32' W 080°08'716.3
2018-Oct-21 01:03N 24°27' W 080°15'116.2
2018-Oct-21 01:00N 24°27' W 080°16'816.2
2018-Oct-21 00:30N 24°22' W 080°23'11815.7
2018-Oct-20 17:00N 23°30' W 082°18'3416.8 140 / 171016.110.8 31.026.930.0
2018-Oct-20 15:00N 23°24' W 082°54'21117.6 130 / 181017.210.8 30.027.330.0
2018-Oct-20 03:00N 21°30' W 086°06'7515.2 090 / 181015.810.8 28.025.230.0
2018-Oct-19 22:05N 20°33' W 086°58'013.2
2018-Oct-19 22:03N 20°33' W 086°58'112.8
2018-Oct-19 22:00N 20°32' W 086°58'3 6.2
2018-Oct-19 21:27N 20°29' W 086°59'0 0.0
2018-Oct-19 21:03N 20°29' W 086°59'0 0.0
2018-Oct-19 21:00N 20°29' W 086°59'0 0.0
2018-Oct-19 20:30N 20°29' W 086°59'0 0.0
2018-Oct-19 20:03N 20°29' W 086°59'0 0.0
2018-Oct-19 20:00N 20°29' W 086°59'0 0.0
2018-Oct-19 19:30N 20°29' W 086°59'0 0.0
2018-Oct-19 19:00N 20°29' W 086°59'0 0.0
2018-Oct-19 18:30N 20°29' W 086°59'0 0.0
2018-Oct-19 18:03N 20°29' W 086°59'0 0.0
2018-Oct-19 17:57N 20°29' W 086°59'0 0.0
2018-Oct-19 17:30N 20°29' W 086°59'0 0.0
2018-Oct-19 17:03N 20°29' W 086°59'0 0.0
2018-Oct-19 17:00N 20°29' W 086°59'0 0.0
2018-Oct-19 16:30N 20°29' W 086°59'0 0.0
2018-Oct-19 16:03N 20°29' W 086°59'0 0.0
2018-Oct-19 16:00N 20°29' W 086°59'0 0.0
2018-Oct-19 15:27N 20°29' W 086°59'0 0.0
2018-Oct-19 15:03N 20°29' W 086°59'0 0.0
2018-Oct-19 15:00N 20°29' W 086°59'0 0.0
2018-Oct-19 14:00N 20°29' W 086°59'0 0.0
2018-Oct-19 13:30N 20°29' W 086°59'0 0.0
2018-Oct-19 13:03N 20°29' W 086°59'0 0.0
2018-Oct-19 13:00N 20°29' W 086°59'0 0.0
2018-Oct-19 12:27N 20°29' W 086°59'0 0.0
2018-Oct-19 12:03N 20°29' W 086°59'0 0.0
2018-Oct-19 12:00N 20°29' W 086°59'0 0.1
2018-Oct-19 11:30N 20°29' W 086°59'3 5.7
2018-Oct-19 11:03N 20°31' W 087°01'0 4.8
2018-Oct-19 11:00N 20°31' W 087°01'510.6
2018-Oct-19 10:30N 20°26' W 087°03'10418.9
2018-Oct-19 05:00N 18°42' W 086°54'4019.9 100 / 351013.110.8 28.028.029.0
2018-Oct-19 03:00N 18°06' W 087°12'79 3.6 090 / 251013.010.8 28.025.230.0
2018-Oct-18 05:00N 16°48' W 087°00'2512.5 090 / 301011.010.8 28.026.629.0
2018-Oct-18 03:00N 16°30' W 087°18'182 8.3 090 / 271010.610.8 28.025.230.0
2018-Oct-17 05:00N 17°30' W 084°18'3433.8 090 / 171011.810.8 28.028.029.0
2018-Oct-17 04:00N 17°48' W 083°48'153 6.6 090 / 181013.010.8 28.025.230.0
2018-Oct-16 05:00N 20°12' W 082°54'2914.4 090 / 221013.410.8 28.028.029.0
2018-Oct-16 03:00N 20°30' W 083°18'13813.8 090 / 201014.210.8 28.025.230.0
2018-Oct-15 17:00N 22°24' W 084°42'4120.5 090 / 151014.410.8 31.026.930.0
2018-Oct-15 15:00N 22°48' W 084°06'19019.0 090 / 151015.410.8 29.027.630.0
2018-Oct-15 05:00N 24°00' W 080°54'3618.2 090 / 221016.010.8 28.028.029.0
2018-Oct-15 03:00N 24°24' W 080°24'6815.7 090 / 201016.810.8 28.025.230.0
2018-Oct-14 22:39N 25°28' W 079°58'214.6
2018-Oct-14 22:31N 25°30' W 079°59'614.4
2018-Oct-14 22:04N 25°36' W 079°59'114.4
2018-Oct-14 22:01N 25°37' W 079°59'612.2
2018-Oct-14 21:30N 25°43' W 080°02'4 8.5
2018-Oct-14 21:03N 25°46' W 080°04'0 6.4
2018-Oct-14 21:00N 25°46' W 080°05'5 9.3
2018-Oct-14 20:30N 25°47' W 080°10'1 1.3
2018-Oct-14 20:01N 25°47' W 080°10'0 0.0
2018-Oct-14 19:58N 25°47' W 080°10'0 0.0
2018-Oct-14 19:28N 25°47' W 080°10'0 0.0
2018-Oct-14 19:03N 25°47' W 080°10'0 0.0
2018-Oct-14 19:00N 25°47' W 080°10'0 0.0
2018-Oct-14 18:29N 25°47' W 080°10'0 0.0
2018-Oct-14 18:02N 25°47' W 080°10'0 0.0
2018-Oct-14 17:59N 25°47' W 080°10'0 0.0
2018-Oct-14 17:29N 25°47' W 080°10'0 0.0
2018-Oct-14 16:59N 25°47' W 080°10'0 0.0
2018-Oct-14 16:29N 25°47' W 080°10'0 0.0
2018-Oct-14 16:02N 25°47' W 080°10'0 0.0
2018-Oct-14 15:59N 25°47' W 080°10'0 0.0
2018-Oct-14 15:29N 25°47' W 080°10'0 0.0
2018-Oct-14 15:02N 25°47' W 080°10'0 0.0
2018-Oct-14 14:59N 25°47' W 080°10'0 0.0
2018-Oct-14 14:29N 25°47' W 080°10'0 0.0
2018-Oct-14 13:59N 25°47' W 080°10'0 0.0
2018-Oct-14 13:29N 25°47' W 080°10'0 0.0
2018-Oct-14 12:59N 25°47' W 080°10'0 0.0
2018-Oct-14 12:29N 25°47' W 080°10'0 0.0
2018-Oct-14 12:02N 25°47' W 080°10'0 0.0
2018-Oct-14 11:59N 25°47' W 080°10'0 0.0
2018-Oct-14 11:29N 25°47' W 080°10'0 0.0
2018-Oct-14 11:02N 25°47' W 080°10'0 0.0
2018-Oct-14 10:53N 25°47' W 080°10'0 0.0
2018-Oct-14 10:29N 25°47' W 080°10'0 0.0
2018-Oct-14 10:03N 25°47' W 080°10'0 0.0
2018-Oct-14 10:00N 25°47' W 080°10'1 1.1
2018-Oct-14 09:30N 25°47' W 080°11'3 5.7
2018-Oct-14 09:03N 25°46' W 080°08'0 7.0
2018-Oct-14 09:00N 25°46' W 080°08'611.7
2018-Oct-14 08:30N 25°47' W 080°02'510.0
2018-Oct-14 08:03N 25°50' W 079°58'0 9.0
2018-Oct-14 08:00N 25°50' W 079°57'510.1
2018-Oct-14 07:30N 25°53' W 079°53'612.7
2018-Oct-14 07:03N 25°57' W 079°48'112.7
2018-Oct-14 07:00N 25°57' W 079°47'612.8
2018-Oct-14 06:30N 26°01' W 079°41'613.3
2018-Oct-14 06:03N 26°04' W 079°36'113.4
2018-Oct-14 06:00N 26°05' W 079°35'713.6
2018-Oct-14 05:30N 26°08' W 079°29'614.1
2018-Oct-14 05:03N 26°12' W 079°23'114.5
2018-Oct-14 05:00N 26°12' W 079°22'7491.0
2018-Oct-14 05:00N 26°06' W 079°18'918.4 180 / 51015.010.8 28.028.029.0
2018-Oct-14 04:30N 26°15' W 079°15'1912.4
2018-Oct-14 03:00N 26°12' W 078°54'17417.4 120 / 61015.310.8 28.025.230.0
2018-Oct-13 17:00N 25°24' W 075°48'   180 / 181014.010.8 30.025.829.0

Dump ship's entire track history